Willmar, MN

9:19 AM CDT on August 30, 2015 (GMT -0500)
Willmar | | Change Station
CLOSE
Current Station
Personal Weather Station
Location: Willmar, MN
Elevation: 1188 ft
Nearby Weather Stations

Elev 1188 ft 45.15 °N, 95.00 °W | Updated 8 minutes ago

Overcast
Overcast
62.3 °F
Feels Like 62.3 °F
N
13.0
Wind Variable Wind from South
Gusts 17.0 mph

Today
High -- | Low -- °F
--% Chance of Precip.
Yesterday
High -- | Low -- °F
Precip. -- in
6:39 AM 8:01 PM
Full, 99% visible
Pressure 29.98 in
Visibility 7.0 miles
Clouds Mostly Cloudy 600 ft
Dew Point 61 °F
Humidity 94%
Rainfall 0.00 in
Snow Depth Not available.
UV 1.2 out of 12
Pollen 10.20 out of 12
Air Quality Not available.
Flu Activity Not available.
METAR KBDH 301415Z AUTO 17005KT 7SM BKN006 18/17 A2998 RMK AO2
Pressure 29.98 in
Visibility 7.0 miles
Clouds Mostly Cloudy 600 ft
Dew Point 61 °F
Humidity 94%
Rainfall 0.00 in
Snow Depth Not available.
UV 1.2 out of 12
Pollen 10.20 out of 12
Air Quality Not available.
Flu Activity Not available.
METAR KBDH 301415Z AUTO 17005KT 7SM BKN006 18/17 A2998 RMK AO2

10-Day Weather Forecast

×

Almanac

Astronomy

Aug. 30, 2015 Rise Set
Actual Time
Civil Twilight
Nautical Twilight
Astronomical Twilight
Moon
Length of Visible Light
Length of Day
Tomorrow will be .
, % of the Moon is Illuminated

Today's Extremes

State Highs State Lows

Community

WunderPhotos

Upload Photos

1,850,968 photos uploaded!

WunderBlogs® & News

Nearby

Air Quality

  Air Quality AQ Index Pollutant
Not available.

Snow Depth

Station Depth Elevation

Earthquake Activity

City Distance Mag. Time & Date
Minimum magnitude displayed is 2.5.

Coastal Water Temperatures

Place Temperature

Stations

Nearby Weather Stations

Station Location Temp. Windchill Dew Point Humidity Wind Precip. Elev Updated Type